sensor_id;sensor_type;location;lat;lon;timestamp;temperature;humidity
4896;DHT22;2463;49.948;8.472;2023-06-10T00:00:26;21.40;99.90
4896;DHT22;2463;49.948;8.472;2023-06-10T00:02:53;21.40;99.90
4896;DHT22;2463;49.948;8.472;2023-06-10T00:05:20;21.40;99.90
4896;DHT22;2463;49.948;8.472;2023-06-10T00:07:47;21.30;99.90
4896;DHT22;2463;49.948;8.472;2023-06-10T00:10:16;21.30;99.90
4896;DHT22;2463;49.948;8.472;2023-06-10T00:12:43;21.30;99.90
4896;DHT22;2463;49.948;8.472;2023-06-10T00:15:10;21.20;99.90
4896;DHT22;2463;49.948;8.472;2023-06-10T00:17:37;21.20;99.90
4896;DHT22;2463;49.948;8.472;2023-06-10T00:20:10;21.20;99.90
4896;DHT22;2463;49.948;8.472;2023-06-10T00:22:39;21.10;99.90
4896;DHT22;2463;49.948;8.472;2023-06-10T00:25:06;21.00;99.90
4896;DHT22;2463;49.948;8.472;2023-06-10T00:27:34;20.90;99.90
4896;DHT22;2463;49.948;8.472;2023-06-10T00:30:05;20.90;99.90
4896;DHT22;2463;49.948;8.472;2023-06-10T00:32:34;20.80;99.90
4896;DHT22;2463;49.948;8.472;2023-06-10T00:35:05;20.70;99.90
4896;DHT22;2463;49.948;8.472;2023-06-10T00:37:33;20.60;99.90
4896;DHT22;2463;49.948;8.472;2023-06-10T00:40:05;20.40;99.90
4896;DHT22;2463;49.948;8.472;2023-06-10T00:42:32;20.40;99.90
4896;DHT22;2463;49.948;8.472;2023-06-10T00:44:59;20.30;99.90
4896;DHT22;2463;49.948;8.472;2023-06-10T00:47:26;20.30;99.90
4896;DHT22;2463;49.948;8.472;2023-06-10T00:49:53;20.20;99.90
4896;DHT22;2463;49.948;8.472;2023-06-10T00:52:22;20.20;99.90
4896;DHT22;2463;49.948;8.472;2023-06-10T00:54:51;20.10;99.90
4896;DHT22;2463;49.948;8.472;2023-06-10T00:57:19;20.20;99.90
4896;DHT22;2463;49.948;8.472;2023-06-10T00:59:48;20.00;99.90
4896;DHT22;2463;49.948;8.472;2023-06-10T01:02:15;20.00;99.90
4896;DHT22;2463;49.948;8.472;2023-06-10T01:04:43;20.00;99.90
4896;DHT22;2463;49.948;8.472;2023-06-10T01:09:55;20.00;99.90
4896;DHT22;2463;49.948;8.472;2023-06-10T01:12:34;19.90;99.90
4896;DHT22;2463;49.948;8.472;2023-06-10T01:15:04;19.80;99.90
4896;DHT22;2463;49.948;8.472;2023-06-10T01:17:31;19.80;99.90
4896;DHT22;2463;49.948;8.472;2023-06-10T01:19:58;19.70;99.90
4896;DHT22;2463;49.948;8.472;2023-06-10T01:22:26;19.70;99.90
4896;DHT22;2463;49.948;8.472;2023-06-10T01:24:59;19.70;99.90
4896;DHT22;2463;49.948;8.472;2023-06-10T01:27:30;19.70;99.90
4896;DHT22;2463;49.948;8.472;2023-06-10T01:30:11;19.70;99.90
4896;DHT22;2463;49.948;8.472;2023-06-10T01:32:48;19.60;99.90
4896;DHT22;2463;49.948;8.472;2023-06-10T01:35:17;19.60;99.90
4896;DHT22;2463;49.948;8.472;2023-06-10T01:37:46;19.60;99.90
4896;DHT22;2463;49.948;8.472;2023-06-10T01:40:16;19.50;99.90
4896;DHT22;2463;49.948;8.472;2023-06-10T01:42:43;19.60;99.90
4896;DHT22;2463;49.948;8.472;2023-06-10T01:45:10;19.60;99.90
4896;DHT22;2463;49.948;8.472;2023-06-10T01:47:37;19.50;99.90
4896;DHT22;2463;49.948;8.472;2023-06-10T01:50:04;19.50;99.90
4896;DHT22;2463;49.948;8.472;2023-06-10T01:52:31;19.50;99.90
4896;DHT22;2463;49.948;8.472;2023-06-10T01:54:57;19.40;99.90
4896;DHT22;2463;49.948;8.472;2023-06-10T01:57:24;19.30;99.90
4896;DHT22;2463;49.948;8.472;2023-06-10T01:59:51;19.20;99.90
4896;DHT22;2463;49.948;8.472;2023-06-10T02:02:17;19.10;99.90
4896;DHT22;2463;49.948;8.472;2023-06-10T02:04:44;19.10;99.90
4896;DHT22;2463;49.948;8.472;2023-06-10T02:07:11;18.90;99.90
4896;DHT22;2463;49.948;8.472;2023-06-10T02:09:38;18.80;99.90
4896;DHT22;2463;49.948;8.472;2023-06-10T02:12:06;18.70;99.90
4896;DHT22;2463;49.948;8.472;2023-06-10T02:14:33;18.60;99.90
4896;DHT22;2463;49.948;8.472;2023-06-10T02:17:00;18.40;99.90
4896;DHT22;2463;49.948;8.472;2023-06-10T02:19:27;18.30;99.90
4896;DHT22;2463;49.948;8.472;2023-06-10T02:21:54;18.20;99.90
4896;DHT22;2463;49.948;8.472;2023-06-10T02:24:21;18.10;99.90
4896;DHT22;2463;49.948;8.472;2023-06-10T02:26:48;18.00;99.90
4896;DHT22;2463;49.948;8.472;2023-06-10T02:29:15;17.90;99.90
4896;DHT22;2463;49.948;8.472;2023-06-10T02:31:41;17.80;99.90
4896;DHT22;2463;49.948;8.472;2023-06-10T02:34:08;17.60;99.90
4896;DHT22;2463;49.948;8.472;2023-06-10T02:36:35;17.50;99.90
4896;DHT22;2463;49.948;8.472;2023-06-10T02:39:03;17.30;99.90
4896;DHT22;2463;49.948;8.472;2023-06-10T02:41:30;17.10;99.90
4896;DHT22;2463;49.948;8.472;2023-06-10T02:43:57;17.10;99.90
4896;DHT22;2463;49.948;8.472;2023-06-10T02:46:24;17.10;99.90
4896;DHT22;2463;49.948;8.472;2023-06-10T02:48:51;17.10;99.90
4896;DHT22;2463;49.948;8.472;2023-06-10T02:51:18;17.00;99.90
4896;DHT22;2463;49.948;8.472;2023-06-10T02:53:45;17.00;99.90
4896;DHT22;2463;49.948;8.472;2023-06-10T02:56:13;16.90;99.90
4896;DHT22;2463;49.948;8.472;2023-06-10T02:58:40;16.80;99.90
4896;DHT22;2463;49.948;8.472;2023-06-10T03:01:07;16.80;99.90
4896;DHT22;2463;49.948;8.472;2023-06-10T03:03:36;16.80;99.90
4896;DHT22;2463;49.948;8.472;2023-06-10T03:06:12;16.60;99.90
4896;DHT22;2463;49.948;8.472;2023-06-10T03:08:39;16.50;99.90
4896;DHT22;2463;49.948;8.472;2023-06-10T03:11:06;16.60;99.90
4896;DHT22;2463;49.948;8.472;2023-06-10T03:13:33;16.50;99.90
4896;DHT22;2463;49.948;8.472;2023-06-10T03:16:00;16.50;99.90
4896;DHT22;2463;49.948;8.472;2023-06-10T03:18:28;16.50;99.90
4896;DHT22;2463;49.948;8.472;2023-06-10T03:20:55;16.50;99.90
4896;DHT22;2463;49.948;8.472;2023-06-10T03:23:23;16.40;99.90
4896;DHT22;2463;49.948;8.472;2023-06-10T03:25:49;16.40;99.90
4896;DHT22;2463;49.948;8.472;2023-06-10T03:28:16;16.30;99.90
4896;DHT22;2463;49.948;8.472;2023-06-10T03:30:43;16.30;99.90
4896;DHT22;2463;49.948;8.472;2023-06-10T03:33:10;16.30;99.90
4896;DHT22;2463;49.948;8.472;2023-06-10T03:35:36;16.20;99.90
4896;DHT22;2463;49.948;8.472;2023-06-10T03:38:03;16.20;99.90
4896;DHT22;2463;49.948;8.472;2023-06-10T03:40:30;16.20;99.90
4896;DHT22;2463;49.948;8.472;2023-06-10T03:42:58;16.30;99.90
4896;DHT22;2463;49.948;8.472;2023-06-10T03:45:25;16.10;99.90
4896;DHT22;2463;49.948;8.472;2023-06-10T03:47:54;16.10;99.90
4896;DHT22;2463;49.948;8.472;2023-06-10T03:50:22;16.20;99.90
4896;DHT22;2463;49.948;8.472;2023-06-10T03:52:50;16.20;99.90
4896;DHT22;2463;49.948;8.472;2023-06-10T03:55:17;16.20;99.90
4896;DHT22;2463;49.948;8.472;2023-06-10T03:57:44;16.30;99.90
4896;DHT22;2463;49.948;8.472;2023-06-10T04:00:11;16.30;99.90
4896;DHT22;2463;49.948;8.472;2023-06-10T04:02:38;16.20;99.90
4896;DHT22;2463;49.948;8.472;2023-06-10T04:05:16;16.20;99.90
4896;DHT22;2463;49.948;8.472;2023-06-10T04:07:43;16.20;99.90
4896;DHT22;2463;49.948;8.472;2023-06-10T04:10:11;16.20;99.90
4896;DHT22;2463;49.948;8.472;2023-06-10T04:12:38;16.20;99.90
4896;DHT22;2463;49.948;8.472;2023-06-10T04:15:05;16.20;99.90
4896;DHT22;2463;49.948;8.472;2023-06-10T04:17:33;16.20;99.90
4896;DHT22;2463;49.948;8.472;2023-06-10T04:19:59;16.10;99.90
4896;DHT22;2463;49.948;8.472;2023-06-10T04:22:27;16.20;99.90
4896;DHT22;2463;49.948;8.472;2023-06-10T04:24:53;16.20;99.90
4896;DHT22;2463;49.948;8.472;2023-06-10T04:27:20;16.20;99.90
4896;DHT22;2463;49.948;8.472;2023-06-10T04:29:47;16.20;99.90
4896;DHT22;2463;49.948;8.472;2023-06-10T04:32:14;16.20;99.90
4896;DHT22;2463;49.948;8.472;2023-06-10T04:34:40;16.30;99.90
4896;DHT22;2463;49.948;8.472;2023-06-10T04:37:07;16.30;99.90
4896;DHT22;2463;49.948;8.472;2023-06-10T04:39:34;16.30;99.90
4896;DHT22;2463;49.948;8.472;2023-06-10T04:42:04;16.40;99.90
4896;DHT22;2463;49.948;8.472;2023-06-10T04:44:32;17.30;99.90
4896;DHT22;2463;49.948;8.472;2023-06-10T04:46:59;16.60;99.90
4896;DHT22;2463;49.948;8.472;2023-06-10T04:49:25;16.70;99.90
4896;DHT22;2463;49.948;8.472;2023-06-10T04:51:52;16.70;99.90
4896;DHT22;2463;49.948;8.472;2023-06-10T04:54:19;16.80;99.90
4896;DHT22;2463;49.948;8.472;2023-06-10T04:56:46;17.00;99.90
4896;DHT22;2463;49.948;8.472;2023-06-10T04:59:13;17.10;99.90
4896;DHT22;2463;49.948;8.472;2023-06-10T05:01:41;17.20;99.90
4896;DHT22;2463;49.948;8.472;2023-06-10T05:04:08;17.30;99.90
4896;DHT22;2463;49.948;8.472;2023-06-10T05:06:35;17.40;99.90
4896;DHT22;2463;49.948;8.472;2023-06-10T05:09:03;17.50;99.90
4896;DHT22;2463;49.948;8.472;2023-06-10T05:11:29;17.60;99.90
4896;DHT22;2463;49.948;8.472;2023-06-10T05:13:56;17.60;99.90
4896;DHT22;2463;49.948;8.472;2023-06-10T05:16:23;17.70;99.90
4896;DHT22;2463;49.948;8.472;2023-06-10T05:18:49;17.80;99.90
4896;DHT22;2463;49.948;8.472;2023-06-10T05:21:18;17.90;99.90
4896;DHT22;2463;49.948;8.472;2023-06-10T05:23:45;18.00;99.90
4896;DHT22;2463;49.948;8.472;2023-06-10T05:26:12;18.10;99.90
4896;DHT22;2463;49.948;8.472;2023-06-10T05:28:38;18.10;99.90
4896;DHT22;2463;49.948;8.472;2023-06-10T05:31:05;18.20;99.90
4896;DHT22;2463;49.948;8.472;2023-06-10T05:33:32;18.30;99.90
4896;DHT22;2463;49.948;8.472;2023-06-10T05:35:58;18.50;99.90
4896;DHT22;2463;49.948;8.472;2023-06-10T05:38:25;18.50;99.90
4896;DHT22;2463;49.948;8.472;2023-06-10T05:40:52;18.60;99.90
4896;DHT22;2463;49.948;8.472;2023-06-10T05:43:18;18.70;99.90
4896;DHT22;2463;49.948;8.472;2023-06-10T05:45:45;18.90;99.90
4896;DHT22;2463;49.948;8.472;2023-06-10T05:48:12;19.00;99.90
4896;DHT22;2463;49.948;8.472;2023-06-10T05:50:39;19.10;99.90
4896;DHT22;2463;49.948;8.472;2023-06-10T05:53:08;19.20;99.90
4896;DHT22;2463;49.948;8.472;2023-06-10T05:55:43;19.40;99.90
4896;DHT22;2463;49.948;8.472;2023-06-10T05:58:10;19.60;99.90
4896;DHT22;2463;49.948;8.472;2023-06-10T06:00:39;19.70;99.90
4896;DHT22;2463;49.948;8.472;2023-06-10T06:03:07;19.90;99.90
4896;DHT22;2463;49.948;8.472;2023-06-10T06:05:37;20.00;99.90
4896;DHT22;2463;49.948;8.472;2023-06-10T06:08:05;20.20;99.90
4896;DHT22;2463;49.948;8.472;2023-06-10T06:10:32;20.40;99.90
4896;DHT22;2463;49.948;8.472;2023-06-10T06:13:00;20.70;99.90
4896;DHT22;2463;49.948;8.472;2023-06-10T06:15:27;20.80;99.90
4896;DHT22;2463;49.948;8.472;2023-06-10T06:17:53;21.00;99.90
4896;DHT22;2463;49.948;8.472;2023-06-10T06:20:20;21.30;99.90
4896;DHT22;2463;49.948;8.472;2023-06-10T06:22:47;21.50;99.90
4896;DHT22;2463;49.948;8.472;2023-06-10T06:25:14;21.80;99.90
4896;DHT22;2463;49.948;8.472;2023-06-10T06:27:41;22.10;99.90
4896;DHT22;2463;49.948;8.472;2023-06-10T06:30:09;22.70;99.90
4896;DHT22;2463;49.948;8.472;2023-06-10T06:32:35;23.70;99.90
4896;DHT22;2463;49.948;8.472;2023-06-10T06:35:02;24.80;99.90
4896;DHT22;2463;49.948;8.472;2023-06-10T06:37:29;26.00;99.90
4896;DHT22;2463;49.948;8.472;2023-06-10T06:39:57;27.20;99.90
4896;DHT22;2463;49.948;8.472;2023-06-10T06:42:28;28.50;99.90
4896;DHT22;2463;49.948;8.472;2023-06-10T06:44:55;29.50;99.90
4896;DHT22;2463;49.948;8.472;2023-06-10T06:47:21;30.80;99.90
4896;DHT22;2463;49.948;8.472;2023-06-10T06:49:48;31.90;98.30
4896;DHT22;2463;49.948;8.472;2023-06-10T06:52:15;33.00;96.40
4896;DHT22;2463;49.948;8.472;2023-06-10T06:54:42;33.90;94.30
4896;DHT22;2463;49.948;8.472;2023-06-10T06:57:09;34.70;92.80
4896;DHT22;2463;49.948;8.472;2023-06-10T06:59:35;35.40;91.40
4896;DHT22;2463;49.948;8.472;2023-06-10T07:02:03;35.90;87.70
4896;DHT22;2463;49.948;8.472;2023-06-10T07:04:30;36.10;85.80
4896;DHT22;2463;49.948;8.472;2023-06-10T07:06:57;36.00;83.90
4896;DHT22;2463;49.948;8.472;2023-06-10T07:09:23;36.00;82.90
4896;DHT22;2463;49.948;8.472;2023-06-10T07:11:50;35.90;82.10
4896;DHT22;2463;49.948;8.472;2023-06-10T07:14:17;35.70;79.80
4896;DHT22;2463;49.948;8.472;2023-06-10T07:16:44;35.50;79.60
4896;DHT22;2463;49.948;8.472;2023-06-10T07:19:12;35.20;80.70
4896;DHT22;2463;49.948;8.472;2023-06-10T07:21:38;34.80;80.00
4896;DHT22;2463;49.948;8.472;2023-06-10T07:24:05;34.40;81.70
4896;DHT22;2463;49.948;8.472;2023-06-10T07:26:32;34.00;81.90
4896;DHT22;2463;49.948;8.472;2023-06-10T07:28:59;33.70;81.40
4896;DHT22;2463;49.948;8.472;2023-06-10T07:31:26;33.30;82.40
4896;DHT22;2463;49.948;8.472;2023-06-10T07:33:53;32.90;80.90
4896;DHT22;2463;49.948;8.472;2023-06-10T07:36:19;32.60;82.30
4896;DHT22;2463;49.948;8.472;2023-06-10T07:38:46;32.40;84.30
4896;DHT22;2463;49.948;8.472;2023-06-10T07:41:13;32.10;83.60
4896;DHT22;2463;49.948;8.472;2023-06-10T07:43:40;31.90;84.20
4896;DHT22;2463;49.948;8.472;2023-06-10T07:46:07;31.80;86.20
4896;DHT22;2463;49.948;8.472;2023-06-10T07:48:34;31.60;85.50
4896;DHT22;2463;49.948;8.472;2023-06-10T07:51:00;31.50;85.30
4896;DHT22;2463;49.948;8.472;2023-06-10T07:53:27;31.50;85.00
4896;DHT22;2463;49.948;8.472;2023-06-10T07:55:54;31.50;85.30
4896;DHT22;2463;49.948;8.472;2023-06-10T07:58:20;31.50;85.10
4896;DHT22;2463;49.948;8.472;2023-06-10T08:00:48;31.60;86.60
4896;DHT22;2463;49.948;8.472;2023-06-10T08:03:15;31.70;86.40
4896;DHT22;2463;49.948;8.472;2023-06-10T08:05:42;31.70;84.10
4896;DHT22;2463;49.948;8.472;2023-06-10T08:08:09;31.80;85.40
4896;DHT22;2463;49.948;8.472;2023-06-10T08:10:36;31.80;84.40
4896;DHT22;2463;49.948;8.472;2023-06-10T08:13:03;31.90;84.00
4896;DHT22;2463;49.948;8.472;2023-06-10T08:15:29;31.90;84.50
4896;DHT22;2463;49.948;8.472;2023-06-10T08:17:56;32.00;82.10
4896;DHT22;2463;49.948;8.472;2023-06-10T08:20:23;32.00;83.10
4896;DHT22;2463;49.948;8.472;2023-06-10T08:22:50;32.10;84.30
4896;DHT22;2463;49.948;8.472;2023-06-10T08:25:17;32.20;83.30
4896;DHT22;2463;49.948;8.472;2023-06-10T08:27:43;32.20;85.10
4896;DHT22;2463;49.948;8.472;2023-06-10T08:30:11;32.30;84.80
4896;DHT22;2463;49.948;8.472;2023-06-10T08:32:39;32.30;82.30
4896;DHT22;2463;49.948;8.472;2023-06-10T08:35:06;32.40;82.80
4896;DHT22;2463;49.948;8.472;2023-06-10T08:37:34;32.40;82.50
4896;DHT22;2463;49.948;8.472;2023-06-10T08:40:00;32.50;81.70
4896;DHT22;2463;49.948;8.472;2023-06-10T08:42:39;32.50;82.00
4896;DHT22;2463;49.948;8.472;2023-06-10T08:45:12;32.50;81.20
4896;DHT22;2463;49.948;8.472;2023-06-10T08:47:44;32.50;81.30
4896;DHT22;2463;49.948;8.472;2023-06-10T08:50:12;32.50;82.80
4896;DHT22;2463;49.948;8.472;2023-06-10T08:52:43;32.50;82.30
4896;DHT22;2463;49.948;8.472;2023-06-10T08:55:23;32.60;82.50
4896;DHT22;2463;49.948;8.472;2023-06-10T08:57:56;32.70;80.50
4896;DHT22;2463;49.948;8.472;2023-06-10T09:00:23;32.80;81.50
4896;DHT22;2463;49.948;8.472;2023-06-10T09:02:50;32.90;80.80
4896;DHT22;2463;49.948;8.472;2023-06-10T09:05:17;33.00;82.50
4896;DHT22;2463;49.948;8.472;2023-06-10T09:07:46;33.00;80.50
4896;DHT22;2463;49.948;8.472;2023-06-10T09:10:14;32.90;80.90
4896;DHT22;2463;49.948;8.472;2023-06-10T09:12:41;32.80;81.00
4896;DHT22;2463;49.948;8.472;2023-06-10T09:15:08;32.90;81.40
4896;DHT22;2463;49.948;8.472;2023-06-10T09:17:35;33.00;81.20
4896;DHT22;2463;49.948;8.472;2023-06-10T09:20:08;33.10;80.70
4896;DHT22;2463;49.948;8.472;2023-06-10T09:22:37;33.00;80.40
4896;DHT22;2463;49.948;8.472;2023-06-10T09:25:11;33.00;80.40
4896;DHT22;2463;49.948;8.472;2023-06-10T09:27:50;33.00;80.70
4896;DHT22;2463;49.948;8.472;2023-06-10T09:30:31;32.90;80.30
4896;DHT22;2463;49.948;8.472;2023-06-10T09:33:00;32.90;80.60
4896;DHT22;2463;49.948;8.472;2023-06-10T09:35:30;32.80;80.00
4896;DHT22;2463;49.948;8.472;2023-06-10T09:37:58;32.80;80.80
4896;DHT22;2463;49.948;8.472;2023-06-10T09:40:26;32.90;80.00
4896;DHT22;2463;49.948;8.472;2023-06-10T09:42:58;32.90;80.50
4896;DHT22;2463;49.948;8.472;2023-06-10T09:45:32;32.60;80.90
4896;DHT22;2463;49.948;8.472;2023-06-10T09:48:00;30.90;79.50
4896;DHT22;2463;49.948;8.472;2023-06-10T09:50:27;32.70;82.20
4896;DHT22;2463;49.948;8.472;2023-06-10T09:52:54;32.90;82.10
4896;DHT22;2463;49.948;8.472;2023-06-10T09:55:21;33.10;80.50
4896;DHT22;2463;49.948;8.472;2023-06-10T09:57:49;33.20;80.80
4896;DHT22;2463;49.948;8.472;2023-06-10T10:00:21;33.30;79.40
4896;DHT22;2463;49.948;8.472;2023-06-10T10:02:51;33.50;77.20
4896;DHT22;2463;49.948;8.472;2023-06-10T10:05:20;33.30;79.10
4896;DHT22;2463;49.948;8.472;2023-06-10T10:07:48;33.20;77.90
4896;DHT22;2463;49.948;8.472;2023-06-10T10:10:17;33.20;79.80
4896;DHT22;2463;49.948;8.472;2023-06-10T10:12:46;33.30;79.10
4896;DHT22;2463;49.948;8.472;2023-06-10T10:15:17;33.50;78.40
4896;DHT22;2463;49.948;8.472;2023-06-10T10:17:50;33.80;78.40
4896;DHT22;2463;49.948;8.472;2023-06-10T10:20:22;34.00;78.00
4896;DHT22;2463;49.948;8.472;2023-06-10T10:22:52;34.20;76.70
4896;DHT22;2463;49.948;8.472;2023-06-10T10:25:35;34.00;75.30
4896;DHT22;2463;49.948;8.472;2023-06-10T10:28:10;34.00;75.90
4896;DHT22;2463;49.948;8.472;2023-06-10T10:30:41;33.80;76.60
4896;DHT22;2463;49.948;8.472;2023-06-10T10:33:12;33.70;76.50
4896;DHT22;2463;49.948;8.472;2023-06-10T10:35:44;33.70;77.20
4896;DHT22;2463;49.948;8.472;2023-06-10T10:38:12;33.60;76.70
4896;DHT22;2463;49.948;8.472;2023-06-10T10:40:39;33.50;77.00
4896;DHT22;2463;49.948;8.472;2023-06-10T10:43:06;33.70;77.80
4896;DHT22;2463;49.948;8.472;2023-06-10T10:45:34;33.70;78.90
4896;DHT22;2463;49.948;8.472;2023-06-10T10:48:07;33.70;78.00
4896;DHT22;2463;49.948;8.472;2023-06-10T10:50:36;34.00;78.30
4896;DHT22;2463;49.948;8.472;2023-06-10T10:53:04;33.40;76.50
4896;DHT22;2463;49.948;8.472;2023-06-10T10:55:32;34.20;75.30
4896;DHT22;2463;49.948;8.472;2023-06-10T10:58:06;34.00;75.80
4896;DHT22;2463;49.948;8.472;2023-06-10T11:00:42;33.90;75.30
4896;DHT22;2463;49.948;8.472;2023-06-10T11:03:14;33.90;77.00
4896;DHT22;2463;49.948;8.472;2023-06-10T11:05:43;34.00;76.30
4896;DHT22;2463;49.948;8.472;2023-06-10T11:08:11;34.00;75.80
4896;DHT22;2463;49.948;8.472;2023-06-10T11:10:40;34.00;76.30
4896;DHT22;2463;49.948;8.472;2023-06-10T11:13:14;33.90;74.30
4896;DHT22;2463;49.948;8.472;2023-06-10T11:15:45;34.00;75.70
4896;DHT22;2463;49.948;8.472;2023-06-10T11:18:19;34.10;75.40
4896;DHT22;2463;49.948;8.472;2023-06-10T11:23:26;34.30;75.10
4896;DHT22;2463;49.948;8.472;2023-06-10T11:34:03;34.30;73.90
4896;DHT22;2463;49.948;8.472;2023-06-10T11:36:32;34.20;72.20
4896;DHT22;2463;49.948;8.472;2023-06-10T11:39:01;34.10;73.70
4896;DHT22;2463;49.948;8.472;2023-06-10T11:41:30;34.00;73.70
4896;DHT22;2463;49.948;8.472;2023-06-10T11:44:02;34.10;74.80
4896;DHT22;2463;49.948;8.472;2023-06-10T11:46:29;34.30;73.80
4896;DHT22;2463;49.948;8.472;2023-06-10T11:48:58;34.10;72.70
4896;DHT22;2463;49.948;8.472;2023-06-10T11:51:26;35.00;73.20
4896;DHT22;2463;49.948;8.472;2023-06-10T11:53:54;34.00;70.80
4896;DHT22;2463;49.948;8.472;2023-06-10T11:56:22;33.80;71.30
4896;DHT22;2463;49.948;8.472;2023-06-10T11:58:57;33.80;71.10
4896;DHT22;2463;49.948;8.472;2023-06-10T12:01:26;33.90;69.30
4896;DHT22;2463;49.948;8.472;2023-06-10T12:04:00;33.80;69.20
4896;DHT22;2463;49.948;8.472;2023-06-10T12:06:27;33.70;70.10
4896;DHT22;2463;49.948;8.472;2023-06-10T12:08:54;33.60;68.70
4896;DHT22;2463;49.948;8.472;2023-06-10T12:11:33;33.50;68.20
4896;DHT22;2463;49.948;8.472;2023-06-10T12:14:00;33.20;70.20
4896;DHT22;2463;49.948;8.472;2023-06-10T12:16:27;32.80;68.40
4896;DHT22;2463;49.948;8.472;2023-06-10T12:19:04;32.60;70.80
4896;DHT22;2463;49.948;8.472;2023-06-10T12:21:33;32.70;71.40
4896;DHT22;2463;49.948;8.472;2023-06-10T12:24:10;33.00;67.50
4896;DHT22;2463;49.948;8.472;2023-06-10T12:26:39;33.40;68.70
4896;DHT22;2463;49.948;8.472;2023-06-10T12:29:22;33.70;68.90
4896;DHT22;2463;49.948;8.472;2023-06-10T12:34:37;33.50;70.10
4896;DHT22;2463;49.948;8.472;2023-06-10T12:37:09;33.50;70.30
4896;DHT22;2463;49.948;8.472;2023-06-10T12:39:40;33.30;68.20
4896;DHT22;2463;49.948;8.472;2023-06-10T12:42:12;33.10;68.20
4896;DHT22;2463;49.948;8.472;2023-06-10T12:44:40;33.10;69.20
4896;DHT22;2463;49.948;8.472;2023-06-10T12:47:11;33.50;69.50
4896;DHT22;2463;49.948;8.472;2023-06-10T12:49:40;33.90;73.30
4896;DHT22;2463;49.948;8.472;2023-06-10T12:52:07;34.20;66.10
4896;DHT22;2463;49.948;8.472;2023-06-10T12:54:34;34.30;66.50
4896;DHT22;2463;49.948;8.472;2023-06-10T12:57:01;34.40;70.40
4896;DHT22;2463;49.948;8.472;2023-06-10T12:59:28;34.30;68.90
4896;DHT22;2463;49.948;8.472;2023-06-10T13:01:55;34.00;65.70
4896;DHT22;2463;49.948;8.472;2023-06-10T13:04:22;33.80;67.60
4896;DHT22;2463;49.948;8.472;2023-06-10T13:06:49;33.50;66.30
4896;DHT22;2463;49.948;8.472;2023-06-10T13:09:16;33.20;68.20
4896;DHT22;2463;49.948;8.472;2023-06-10T13:11:43;32.90;66.00
4896;DHT22;2463;49.948;8.472;2023-06-10T13:14:10;32.80;65.90
4896;DHT22;2463;49.948;8.472;2023-06-10T13:16:38;32.60;66.50
4896;DHT22;2463;49.948;8.472;2023-06-10T13:19:05;32.50;68.20
4896;DHT22;2463;49.948;8.472;2023-06-10T13:21:32;32.50;65.90
4896;DHT22;2463;49.948;8.472;2023-06-10T13:23:59;32.30;68.40
4896;DHT22;2463;49.948;8.472;2023-06-10T13:26:26;32.00;67.40
4896;DHT22;2463;49.948;8.472;2023-06-10T13:28:53;31.90;65.40
4896;DHT22;2463;49.948;8.472;2023-06-10T13:31:20;31.60;64.80
4896;DHT22;2463;49.948;8.472;2023-06-10T13:33:47;31.50;67.90
4896;DHT22;2463;49.948;8.472;2023-06-10T13:36:14;31.40;70.10
4896;DHT22;2463;49.948;8.472;2023-06-10T13:38:41;31.50;72.50
4896;DHT22;2463;49.948;8.472;2023-06-10T13:41:08;31.90;70.40
4896;DHT22;2463;49.948;8.472;2023-06-10T13:43:35;32.20;68.30
4896;DHT22;2463;49.948;8.472;2023-06-10T13:46:02;32.40;69.50
4896;DHT22;2463;49.948;8.472;2023-06-10T13:48:28;32.50;68.60
4896;DHT22;2463;49.948;8.472;2023-06-10T13:50:55;32.10;69.00
4896;DHT22;2463;49.948;8.472;2023-06-10T13:53:22;31.80;70.30
4896;DHT22;2463;49.948;8.472;2023-06-10T13:55:49;31.40;69.70
4896;DHT22;2463;49.948;8.472;2023-06-10T13:58:15;31.40;70.30
4896;DHT22;2463;49.948;8.472;2023-06-10T14:00:42;31.40;70.90
4896;DHT22;2463;49.948;8.472;2023-06-10T14:03:09;31.20;70.50
4896;DHT22;2463;49.948;8.472;2023-06-10T14:05:36;31.20;70.40
4896;DHT22;2463;49.948;8.472;2023-06-10T14:08:03;31.50;66.60
4896;DHT22;2463;49.948;8.472;2023-06-10T14:10:30;31.90;69.50
4896;DHT22;2463;49.948;8.472;2023-06-10T14:12:56;32.20;69.30
4896;DHT22;2463;49.948;8.472;2023-06-10T14:15:23;32.10;66.60
4896;DHT22;2463;49.948;8.472;2023-06-10T14:17:50;32.30;66.10
4896;DHT22;2463;49.948;8.472;2023-06-10T14:20:17;32.20;64.30
4896;DHT22;2463;49.948;8.472;2023-06-10T14:22:43;32.30;69.40
4896;DHT22;2463;49.948;8.472;2023-06-10T14:25:10;32.40;68.20
4896;DHT22;2463;49.948;8.472;2023-06-10T14:27:38;32.60;69.20
4896;DHT22;2463;49.948;8.472;2023-06-10T14:30:05;32.70;68.50
4896;DHT22;2463;49.948;8.472;2023-06-10T14:32:32;33.30;67.20
4896;DHT22;2463;49.948;8.472;2023-06-10T14:34:59;32.80;67.80
4896;DHT22;2463;49.948;8.472;2023-06-10T14:37:26;32.80;67.10
4896;DHT22;2463;49.948;8.472;2023-06-10T14:39:53;32.70;63.40
4896;DHT22;2463;49.948;8.472;2023-06-10T14:42:20;32.70;68.80
4896;DHT22;2463;49.948;8.472;2023-06-10T14:44:46;32.90;67.70
4896;DHT22;2463;49.948;8.472;2023-06-10T14:47:13;32.80;63.30
4896;DHT22;2463;49.948;8.472;2023-06-10T14:49:40;33.00;66.90
4896;DHT22;2463;49.948;8.472;2023-06-10T14:52:08;33.20;66.50
4896;DHT22;2463;49.948;8.472;2023-06-10T14:54:35;33.30;64.10
4896;DHT22;2463;49.948;8.472;2023-06-10T14:57:02;33.30;63.50
4896;DHT22;2463;49.948;8.472;2023-06-10T14:59:29;33.00;66.30
4896;DHT22;2463;49.948;8.472;2023-06-10T15:01:56;32.80;67.80
4896;DHT22;2463;49.948;8.472;2023-06-10T15:04:23;32.60;68.70
4896;DHT22;2463;49.948;8.472;2023-06-10T15:06:50;32.30;68.80
4896;DHT22;2463;49.948;8.472;2023-06-10T15:09:17;32.10;69.30
4896;DHT22;2463;49.948;8.472;2023-06-10T15:11:44;31.70;69.90
4896;DHT22;2463;49.948;8.472;2023-06-10T15:14:11;31.40;70.90
4896;DHT22;2463;49.948;8.472;2023-06-10T15:16:37;31.30;73.00
4896;DHT22;2463;49.948;8.472;2023-06-10T15:19:04;31.20;72.80
4896;DHT22;2463;49.948;8.472;2023-06-10T15:21:33;31.30;72.80
4896;DHT22;2463;49.948;8.472;2023-06-10T15:24:00;31.40;72.70
4896;DHT22;2463;49.948;8.472;2023-06-10T15:26:27;31.60;72.10
4896;DHT22;2463;49.948;8.472;2023-06-10T15:28:54;31.40;72.30
4896;DHT22;2463;49.948;8.472;2023-06-10T15:31:20;31.10;71.70
4896;DHT22;2463;49.948;8.472;2023-06-10T15:33:47;30.90;72.90
4896;DHT22;2463;49.948;8.472;2023-06-10T15:36:14;30.80;72.90
4896;DHT22;2463;49.948;8.472;2023-06-10T15:38:41;30.70;73.90
4896;DHT22;2463;49.948;8.472;2023-06-10T15:41:08;30.50;73.10
4896;DHT22;2463;49.948;8.472;2023-06-10T15:43:35;30.50;73.90
4896;DHT22;2463;49.948;8.472;2023-06-10T15:46:02;30.50;75.00
4896;DHT22;2463;49.948;8.472;2023-06-10T15:48:28;30.50;76.20
4896;DHT22;2463;49.948;8.472;2023-06-10T15:50:55;30.40;76.70
4896;DHT22;2463;49.948;8.472;2023-06-10T15:53:22;30.40;76.50
4896;DHT22;2463;49.948;8.472;2023-06-10T15:55:48;30.30;77.90
4896;DHT22;2463;49.948;8.472;2023-06-10T15:58:15;30.40;78.40
4896;DHT22;2463;49.948;8.472;2023-06-10T16:00:42;30.20;79.60
4896;DHT22;2463;49.948;8.472;2023-06-10T16:03:09;30.20;80.60
4896;DHT22;2463;49.948;8.472;2023-06-10T16:05:36;30.20;82.80
4896;DHT22;2463;49.948;8.472;2023-06-10T16:08:03;30.30;82.80
4896;DHT22;2463;49.948;8.472;2023-06-10T16:10:29;30.20;82.90
4896;DHT22;2463;49.948;8.472;2023-06-10T16:12:56;30.00;82.00
4896;DHT22;2463;49.948;8.472;2023-06-10T16:15:23;30.00;89.20
4896;DHT22;2463;49.948;8.472;2023-06-10T16:17:49;30.00;82.40
4896;DHT22;2463;49.948;8.472;2023-06-10T16:20:16;30.10;78.90
4896;DHT22;2463;49.948;8.472;2023-06-10T16:22:43;30.20;77.70